sensor_id;sensor_type;location;lat;lon;timestamp;P1;durP1;ratioP1;P2;durP2;ratioP2
2055;SDS011;1033;52.560;13.374;2023-07-29T00:01:33;56.13;;;50.53;;
2055;SDS011;1033;52.560;13.374;2023-07-29T00:04:02;48.77;;;43.53;;
2055;SDS011;1033;52.560;13.374;2023-07-29T00:06:32;16.47;;;14.70;;
2055;SDS011;1033;52.560;13.374;2023-07-29T00:09:01;12.63;;;11.40;;
2055;SDS011;1033;52.560;13.374;2023-07-29T00:11:32;15.63;;;12.43;;
2055;SDS011;1033;52.560;13.374;2023-07-29T00:14:02;14.40;;;13.00;;
2055;SDS011;1033;52.560;13.374;2023-07-29T00:16:31;13.97;;;12.67;;
2055;SDS011;1033;52.560;13.374;2023-07-29T00:19:02;14.90;;;13.40;;
2055;SDS011;1033;52.560;13.374;2023-07-29T00:21:31;15.43;;;13.70;;
2055;SDS011;1033;52.560;13.374;2023-07-29T00:24:00;16.87;;;15.17;;
2055;SDS011;1033;52.560;13.374;2023-07-29T00:26:30;15.50;;;13.97;;
2055;SDS011;1033;52.560;13.374;2023-07-29T00:29:01;17.87;;;14.90;;
2055;SDS011;1033;52.560;13.374;2023-07-29T00:31:30;15.03;;;13.53;;
2055;SDS011;1033;52.560;13.374;2023-07-29T00:33:59;15.67;;;14.17;;
2055;SDS011;1033;52.560;13.374;2023-07-29T00:36:28;15.73;;;14.23;;
2055;SDS011;1033;52.560;13.374;2023-07-29T00:38:58;16.00;;;14.30;;
2055;SDS011;1033;52.560;13.374;2023-07-29T00:41:27;17.03;;;14.50;;
2055;SDS011;1033;52.560;13.374;2023-07-29T00:43:57;16.57;;;14.87;;
2055;SDS011;1033;52.560;13.374;2023-07-29T00:46:29;15.50;;;14.00;;
2055;SDS011;1033;52.560;13.374;2023-07-29T00:49:00;16.87;;;14.90;;
2055;SDS011;1033;52.560;13.374;2023-07-29T00:51:29;15.73;;;14.07;;
2055;SDS011;1033;52.560;13.374;2023-07-29T00:53:58;14.77;;;13.37;;
2055;SDS011;1033;52.560;13.374;2023-07-29T00:56:28;16.00;;;14.30;;
2055;SDS011;1033;52.560;13.374;2023-07-29T00:58:59;16.00;;;14.50;;
2055;SDS011;1033;52.560;13.374;2023-07-29T01:01:31;17.43;;;14.67;;
2055;SDS011;1033;52.560;13.374;2023-07-29T01:04:00;16.87;;;15.07;;
2055;SDS011;1033;52.560;13.374;2023-07-29T01:06:29;16.53;;;14.80;;
2055;SDS011;1033;52.560;13.374;2023-07-29T01:09:11;22.47;;;16.27;;
2055;SDS011;1033;52.560;13.374;2023-07-29T01:11:52;18.57;;;15.63;;
2055;SDS011;1033;52.560;13.374;2023-07-29T01:14:34;17.63;;;15.60;;
2055;SDS011;1033;52.560;13.374;2023-07-29T01:17:13;15.97;;;14.47;;
2055;SDS011;1033;52.560;13.374;2023-07-29T01:19:55;16.97;;;15.10;;
2055;SDS011;1033;52.560;13.374;2023-07-29T01:22:34;20.03;;;14.47;;
2055;SDS011;1033;52.560;13.374;2023-07-29T01:25:07;16.60;;;15.00;;
2055;SDS011;1033;52.560;13.374;2023-07-29T01:27:36;15.87;;;14.27;;
2055;SDS011;1033;52.560;13.374;2023-07-29T01:30:05;16.90;;;15.10;;
2055;SDS011;1033;52.560;13.374;2023-07-29T01:32:37;17.13;;;14.63;;
2055;SDS011;1033;52.560;13.374;2023-07-29T01:35:14;18.27;;;15.10;;
2055;SDS011;1033;52.560;13.374;2023-07-29T01:37:51;16.87;;;15.27;;
2055;SDS011;1033;52.560;13.374;2023-07-29T01:40:24;16.80;;;15.07;;
2055;SDS011;1033;52.560;13.374;2023-07-29T01:42:56;17.47;;;15.67;;
2055;SDS011;1033;52.560;13.374;2023-07-29T01:45:25;15.77;;;14.17;;
2055;SDS011;1033;52.560;13.374;2023-07-29T01:47:54;16.97;;;15.23;;
2055;SDS011;1033;52.560;13.374;2023-07-29T01:50:23;17.13;;;15.43;;
2055;SDS011;1033;52.560;13.374;2023-07-29T01:52:52;16.93;;;15.23;;
2055;SDS011;1033;52.560;13.374;2023-07-29T01:55:22;18.03;;;16.10;;
2055;SDS011;1033;52.560;13.374;2023-07-29T01:57:52;18.23;;;15.57;;
2055;SDS011;1033;52.560;13.374;2023-07-29T02:00:23;16.47;;;14.80;;
2055;SDS011;1033;52.560;13.374;2023-07-29T02:02:52;17.83;;;16.13;;
2055;SDS011;1033;52.560;13.374;2023-07-29T02:05:21;18.40;;;15.60;;
2055;SDS011;1033;52.560;13.374;2023-07-29T02:07:50;15.83;;;14.23;;
2055;SDS011;1033;52.560;13.374;2023-07-29T02:10:20;18.00;;;16.13;;
2055;SDS011;1033;52.560;13.374;2023-07-29T02:12:49;16.60;;;15.03;;
2055;SDS011;1033;52.560;13.374;2023-07-29T02:15:20;18.80;;;16.90;;
2055;SDS011;1033;52.560;13.374;2023-07-29T02:17:50;17.23;;;15.47;;
2055;SDS011;1033;52.560;13.374;2023-07-29T02:20:20;18.37;;;16.50;;
2055;SDS011;1033;52.560;13.374;2023-07-29T02:22:50;18.60;;;14.80;;
2055;SDS011;1033;52.560;13.374;2023-07-29T02:25:19;18.00;;;15.73;;
2055;SDS011;1033;52.560;13.374;2023-07-29T02:27:49;18.93;;;16.20;;
2055;SDS011;1033;52.560;13.374;2023-07-29T02:30:20;17.03;;;15.00;;
2055;SDS011;1033;52.560;13.374;2023-07-29T02:32:49;16.23;;;14.40;;
2055;SDS011;1033;52.560;13.374;2023-07-29T02:35:18;15.73;;;14.20;;
2055;SDS011;1033;52.560;13.374;2023-07-29T02:37:48;21.30;;;14.93;;
2055;SDS011;1033;52.560;13.374;2023-07-29T02:40:19;16.67;;;14.97;;
2055;SDS011;1033;52.560;13.374;2023-07-29T02:42:49;17.30;;;15.50;;
2055;SDS011;1033;52.560;13.374;2023-07-29T02:45:20;16.00;;;14.40;;
2055;SDS011;1033;52.560;13.374;2023-07-29T02:47:49;16.97;;;15.20;;
2055;SDS011;1033;52.560;13.374;2023-07-29T02:50:18;18.93;;;16.93;;
2055;SDS011;1033;52.560;13.374;2023-07-29T02:52:48;17.30;;;15.47;;
2055;SDS011;1033;52.560;13.374;2023-07-29T02:55:17;17.83;;;15.90;;
2055;SDS011;1033;52.560;13.374;2023-07-29T02:57:46;14.60;;;13.20;;
2055;SDS011;1033;52.560;13.374;2023-07-29T03:00:15;15.63;;;14.20;;
2055;SDS011;1033;52.560;13.374;2023-07-29T03:02:46;18.20;;;15.60;;
2055;SDS011;1033;52.560;13.374;2023-07-29T03:05:15;17.80;;;15.77;;
2055;SDS011;1033;52.560;13.374;2023-07-29T03:07:44;14.93;;;13.43;;
2055;SDS011;1033;52.560;13.374;2023-07-29T03:10:14;14.83;;;13.37;;
2055;SDS011;1033;52.560;13.374;2023-07-29T03:12:43;14.77;;;13.37;;
2055;SDS011;1033;52.560;13.374;2023-07-29T03:15:12;16.20;;;14.60;;
2055;SDS011;1033;52.560;13.374;2023-07-29T03:17:41;16.43;;;14.90;;
2055;SDS011;1033;52.560;13.374;2023-07-29T03:20:12;16.43;;;14.93;;
2055;SDS011;1033;52.560;13.374;2023-07-29T03:22:41;16.40;;;14.63;;
2055;SDS011;1033;52.560;13.374;2023-07-29T03:25:11;16.77;;;15.17;;
2055;SDS011;1033;52.560;13.374;2023-07-29T03:27:41;18.30;;;16.43;;
2055;SDS011;1033;52.560;13.374;2023-07-29T03:30:10;17.30;;;15.43;;
2055;SDS011;1033;52.560;13.374;2023-07-29T03:32:43;19.70;;;17.60;;
2055;SDS011;1033;52.560;13.374;2023-07-29T03:35:14;18.43;;;16.53;;
2055;SDS011;1033;52.560;13.374;2023-07-29T03:37:44;18.97;;;17.00;;
2055;SDS011;1033;52.560;13.374;2023-07-29T03:40:14;19.27;;;17.37;;
2055;SDS011;1033;52.560;13.374;2023-07-29T03:42:44;19.43;;;17.53;;
2055;SDS011;1033;52.560;13.374;2023-07-29T03:45:14;18.77;;;16.87;;
2055;SDS011;1033;52.560;13.374;2023-07-29T03:47:43;18.83;;;16.90;;
2055;SDS011;1033;52.560;13.374;2023-07-29T03:50:12;18.77;;;16.90;;
2055;SDS011;1033;52.560;13.374;2023-07-29T03:52:43;20.03;;;18.03;;
2055;SDS011;1033;52.560;13.374;2023-07-29T03:55:12;19.10;;;17.20;;
2055;SDS011;1033;52.560;13.374;2023-07-29T03:57:41;19.03;;;16.97;;
2055;SDS011;1033;52.560;13.374;2023-07-29T04:00:11;18.10;;;15.00;;
2055;SDS011;1033;52.560;13.374;2023-07-29T04:02:46;16.37;;;14.60;;
2055;SDS011;1033;52.560;13.374;2023-07-29T04:05:17;19.30;;;15.70;;
2055;SDS011;1033;52.560;13.374;2023-07-29T04:07:47;15.70;;;14.33;;
2055;SDS011;1033;52.560;13.374;2023-07-29T04:10:16;14.03;;;12.73;;
2055;SDS011;1033;52.560;13.374;2023-07-29T04:12:45;16.10;;;14.60;;
2055;SDS011;1033;52.560;13.374;2023-07-29T04:15:15;18.80;;;14.23;;
2055;SDS011;1033;52.560;13.374;2023-07-29T04:17:44;14.63;;;13.20;;
2055;SDS011;1033;52.560;13.374;2023-07-29T04:20:13;15.30;;;13.83;;
2055;SDS011;1033;52.560;13.374;2023-07-29T04:22:44;14.80;;;13.27;;
2055;SDS011;1033;52.560;13.374;2023-07-29T04:25:13;13.37;;;12.27;;
2055;SDS011;1033;52.560;13.374;2023-07-29T04:27:42;13.57;;;12.17;;
2055;SDS011;1033;52.560;13.374;2023-07-29T04:30:11;13.03;;;11.80;;
2055;SDS011;1033;52.560;13.374;2023-07-29T04:32:41;13.40;;;12.30;;
2055;SDS011;1033;52.560;13.374;2023-07-29T04:35:11;12.00;;;10.90;;
2055;SDS011;1033;52.560;13.374;2023-07-29T04:37:41;13.00;;;11.73;;
2055;SDS011;1033;52.560;13.374;2023-07-29T04:40:12;12.30;;;11.20;;
2055;SDS011;1033;52.560;13.374;2023-07-29T04:42:42;16.00;;;9.70;;
2055;SDS011;1033;52.560;13.374;2023-07-29T04:45:11;9.87;;;8.97;;
2055;SDS011;1033;52.560;13.374;2023-07-29T04:47:40;10.73;;;9.80;;
2055;SDS011;1033;52.560;13.374;2023-07-29T04:50:09;9.80;;;9.00;;
2055;SDS011;1033;52.560;13.374;2023-07-29T04:52:39;9.40;;;8.60;;
2055;SDS011;1033;52.560;13.374;2023-07-29T04:55:08;16.83;;;10.27;;
2055;SDS011;1033;52.560;13.374;2023-07-29T04:57:39;10.40;;;9.40;;
2055;SDS011;1033;52.560;13.374;2023-07-29T05:00:08;10.20;;;9.00;;
2055;SDS011;1033;52.560;13.374;2023-07-29T05:02:38;9.47;;;8.57;;
2055;SDS011;1033;52.560;13.374;2023-07-29T05:05:07;9.60;;;8.70;;
2055;SDS011;1033;52.560;13.374;2023-07-29T05:07:37;8.77;;;8.03;;
2055;SDS011;1033;52.560;13.374;2023-07-29T05:10:06;10.03;;;9.13;;
2055;SDS011;1033;52.560;13.374;2023-07-29T05:12:36;9.97;;;8.93;;
2055;SDS011;1033;52.560;13.374;2023-07-29T05:15:07;12.40;;;9.77;;
2055;SDS011;1033;52.560;13.374;2023-07-29T05:17:37;10.73;;;7.70;;
2055;SDS011;1033;52.560;13.374;2023-07-29T05:20:07;9.10;;;8.30;;
2055;SDS011;1033;52.560;13.374;2023-07-29T05:22:37;8.47;;;7.77;;
2055;SDS011;1033;52.560;13.374;2023-07-29T05:25:06;7.67;;;6.97;;
2055;SDS011;1033;52.560;13.374;2023-07-29T05:27:36;11.97;;;8.77;;
2055;SDS011;1033;52.560;13.374;2023-07-29T05:30:07;8.57;;;7.83;;
2055;SDS011;1033;52.560;13.374;2023-07-29T05:32:37;9.80;;;8.90;;
2055;SDS011;1033;52.560;13.374;2023-07-29T05:35:06;12.73;;;11.53;;
2055;SDS011;1033;52.560;13.374;2023-07-29T05:37:37;13.13;;;8.60;;
2055;SDS011;1033;52.560;13.374;2023-07-29T05:40:07;9.57;;;8.87;;
2055;SDS011;1033;52.560;13.374;2023-07-29T05:42:40;9.00;;;8.17;;
2055;SDS011;1033;52.560;13.374;2023-07-29T05:45:09;10.77;;;9.80;;
2055;SDS011;1033;52.560;13.374;2023-07-29T05:47:39;9.83;;;8.93;;
2055;SDS011;1033;52.560;13.374;2023-07-29T05:50:08;9.00;;;8.30;;
2055;SDS011;1033;52.560;13.374;2023-07-29T05:52:38;10.33;;;9.47;;
2055;SDS011;1033;52.560;13.374;2023-07-29T05:55:07;10.40;;;9.60;;
2055;SDS011;1033;52.560;13.374;2023-07-29T05:57:37;9.60;;;8.87;;
2055;SDS011;1033;52.560;13.374;2023-07-29T06:00:10;9.60;;;8.80;;
2055;SDS011;1033;52.560;13.374;2023-07-29T06:02:40;10.23;;;9.30;;
2055;SDS011;1033;52.560;13.374;2023-07-29T06:05:14;11.07;;;10.00;;
2055;SDS011;1033;52.560;13.374;2023-07-29T06:07:43;10.37;;;9.37;;
2055;SDS011;1033;52.560;13.374;2023-07-29T06:10:15;10.50;;;9.60;;
2055;SDS011;1033;52.560;13.374;2023-07-29T06:12:47;9.43;;;8.53;;
2055;SDS011;1033;52.560;13.374;2023-07-29T06:15:16;11.60;;;9.83;;
2055;SDS011;1033;52.560;13.374;2023-07-29T06:17:48;10.63;;;9.83;;
2055;SDS011;1033;52.560;13.374;2023-07-29T06:20:21;9.97;;;9.17;;
2055;SDS011;1033;52.560;13.374;2023-07-29T06:22:50;11.23;;;10.00;;
2055;SDS011;1033;52.560;13.374;2023-07-29T06:25:20;9.90;;;8.90;;
2055;SDS011;1033;52.560;13.374;2023-07-29T06:27:50;9.33;;;8.53;;
2055;SDS011;1033;52.560;13.374;2023-07-29T06:30:20;8.83;;;8.13;;
2055;SDS011;1033;52.560;13.374;2023-07-29T06:32:49;8.67;;;7.97;;
2055;SDS011;1033;52.560;13.374;2023-07-29T06:35:18;8.40;;;7.80;;
2055;SDS011;1033;52.560;13.374;2023-07-29T06:37:49;10.77;;;8.23;;
2055;SDS011;1033;52.560;13.374;2023-07-29T06:40:19;9.33;;;8.53;;
2055;SDS011;1033;52.560;13.374;2023-07-29T06:42:48;8.97;;;8.07;;
2055;SDS011;1033;52.560;13.374;2023-07-29T06:45:19;9.30;;;8.50;;
2055;SDS011;1033;52.560;13.374;2023-07-29T06:47:49;7.43;;;6.73;;
2055;SDS011;1033;52.560;13.374;2023-07-29T06:50:18;8.40;;;7.60;;
2055;SDS011;1033;52.560;13.374;2023-07-29T06:52:48;8.00;;;7.37;;
2055;SDS011;1033;52.560;13.374;2023-07-29T06:55:17;8.60;;;7.80;;
2055;SDS011;1033;52.560;13.374;2023-07-29T06:57:46;10.50;;;8.73;;
2055;SDS011;1033;52.560;13.374;2023-07-29T07:00:19;7.70;;;7.00;;
2055;SDS011;1033;52.560;13.374;2023-07-29T07:02:48;8.83;;;8.10;;
2055;SDS011;1033;52.560;13.374;2023-07-29T07:05:18;8.13;;;7.43;;
2055;SDS011;1033;52.560;13.374;2023-07-29T07:07:47;9.97;;;8.97;;
2055;SDS011;1033;52.560;13.374;2023-07-29T07:10:16;8.30;;;7.70;;
2055;SDS011;1033;52.560;13.374;2023-07-29T07:12:46;8.07;;;7.33;;
2055;SDS011;1033;52.560;13.374;2023-07-29T07:15:15;8.07;;;7.37;;
2055;SDS011;1033;52.560;13.374;2023-07-29T07:17:46;6.60;;;5.43;;
2055;SDS011;1033;52.560;13.374;2023-07-29T07:20:16;9.50;;;8.57;;
2055;SDS011;1033;52.560;13.374;2023-07-29T07:22:45;9.00;;;8.23;;
2055;SDS011;1033;52.560;13.374;2023-07-29T07:25:14;9.93;;;9.13;;
2055;SDS011;1033;52.560;13.374;2023-07-29T07:27:43;10.77;;;9.67;;
2055;SDS011;1033;52.560;13.374;2023-07-29T07:30:12;9.47;;;8.67;;
2055;SDS011;1033;52.560;13.374;2023-07-29T07:32:42;9.67;;;8.97;;
2055;SDS011;1033;52.560;13.374;2023-07-29T07:35:13;10.70;;;9.90;;
2055;SDS011;1033;52.560;13.374;2023-07-29T07:37:42;9.97;;;9.17;;
2055;SDS011;1033;52.560;13.374;2023-07-29T07:40:11;9.43;;;8.50;;
2055;SDS011;1033;52.560;13.374;2023-07-29T07:42:43;10.87;;;9.80;;
2055;SDS011;1033;52.560;13.374;2023-07-29T07:45:12;9.90;;;9.20;;
2055;SDS011;1033;52.560;13.374;2023-07-29T07:47:41;10.77;;;8.80;;
2055;SDS011;1033;52.560;13.374;2023-07-29T07:50:12;10.93;;;10.03;;
2055;SDS011;1033;52.560;13.374;2023-07-29T07:52:41;9.27;;;8.67;;
2055;SDS011;1033;52.560;13.374;2023-07-29T07:55:10;10.60;;;9.70;;
2055;SDS011;1033;52.560;13.374;2023-07-29T07:57:40;10.40;;;9.70;;
2055;SDS011;1033;52.560;13.374;2023-07-29T08:00:09;10.07;;;9.30;;
2055;SDS011;1033;52.560;13.374;2023-07-29T08:02:39;10.93;;;10.13;;
2055;SDS011;1033;52.560;13.374;2023-07-29T08:05:08;10.60;;;9.80;;
2055;SDS011;1033;52.560;13.374;2023-07-29T08:07:38;11.60;;;10.80;;
2055;SDS011;1033;52.560;13.374;2023-07-29T08:10:07;9.93;;;9.23;;
2055;SDS011;1033;52.560;13.374;2023-07-29T08:12:37;10.13;;;9.33;;
2055;SDS011;1033;52.560;13.374;2023-07-29T08:15:06;11.43;;;10.37;;
2055;SDS011;1033;52.560;13.374;2023-07-29T08:17:35;9.37;;;8.67;;
2055;SDS011;1033;52.560;13.374;2023-07-29T08:20:05;8.90;;;8.27;;
2055;SDS011;1033;52.560;13.374;2023-07-29T08:22:34;7.97;;;7.27;;
2055;SDS011;1033;52.560;13.374;2023-07-29T08:25:05;7.43;;;6.80;;
2055;SDS011;1033;52.560;13.374;2023-07-29T08:27:35;7.70;;;7.00;;
2055;SDS011;1033;52.560;13.374;2023-07-29T08:30:05;8.93;;;6.67;;
2055;SDS011;1033;52.560;13.374;2023-07-29T08:32:36;8.97;;;6.57;;
2055;SDS011;1033;52.560;13.374;2023-07-29T08:35:05;6.87;;;6.27;;
2055;SDS011;1033;52.560;13.374;2023-07-29T08:37:34;6.80;;;6.20;;
2055;SDS011;1033;52.560;13.374;2023-07-29T08:40:05;8.80;;;6.43;;
2055;SDS011;1033;52.560;13.374;2023-07-29T08:42:54;6.80;;;6.30;;
2055;SDS011;1033;52.560;13.374;2023-07-29T08:49:22;6.00;;;5.40;;
2055;SDS011;1033;52.560;13.374;2023-07-29T08:51:53;5.50;;;4.93;;
2055;SDS011;1033;52.560;13.374;2023-07-29T08:54:28;6.00;;;5.50;;
2055;SDS011;1033;52.560;13.374;2023-07-29T08:56:59;6.83;;;5.90;;
2055;SDS011;1033;52.560;13.374;2023-07-29T08:59:45;6.00;;;5.50;;
2055;SDS011;1033;52.560;13.374;2023-07-29T09:02:15;11.37;;;6.00;;
2055;SDS011;1033;52.560;13.374;2023-07-29T09:04:45;5.90;;;5.50;;
2055;SDS011;1033;52.560;13.374;2023-07-29T09:07:14;5.60;;;5.20;;
2055;SDS011;1033;52.560;13.374;2023-07-29T09:09:47;4.53;;;4.13;;
2055;SDS011;1033;52.560;13.374;2023-07-29T09:12:20;6.10;;;5.60;;
2055;SDS011;1033;52.560;13.374;2023-07-29T09:14:51;6.57;;;6.07;;
2055;SDS011;1033;52.560;13.374;2023-07-29T09:17:21;6.53;;;6.03;;
2055;SDS011;1033;52.560;13.374;2023-07-29T09:19:50;5.83;;;5.33;;
2055;SDS011;1033;52.560;13.374;2023-07-29T09:22:20;5.63;;;5.13;;
2055;SDS011;1033;52.560;13.374;2023-07-29T09:24:49;5.33;;;4.93;;
2055;SDS011;1033;52.560;13.374;2023-07-29T09:27:24;6.80;;;5.70;;
2055;SDS011;1033;52.560;13.374;2023-07-29T09:29:54;6.20;;;5.30;;
2055;SDS011;1033;52.560;13.374;2023-07-29T09:32:24;5.83;;;5.30;;
2055;SDS011;1033;52.560;13.374;2023-07-29T09:34:54;6.30;;;5.70;;
2055;SDS011;1033;52.560;13.374;2023-07-29T09:37:24;5.57;;;4.97;;
2055;SDS011;1033;52.560;13.374;2023-07-29T09:39:57;4.50;;;4.13;;
2055;SDS011;1033;52.560;13.374;2023-07-29T09:42:28;7.10;;;6.40;;
2055;SDS011;1033;52.560;13.374;2023-07-29T09:44:57;6.67;;;6.17;;
2055;SDS011;1033;52.560;13.374;2023-07-29T09:47:26;5.63;;;4.90;;
2055;SDS011;1033;52.560;13.374;2023-07-29T09:49:58;6.67;;;5.07;;
2055;SDS011;1033;52.560;13.374;2023-07-29T09:52:28;5.50;;;4.70;;
2055;SDS011;1033;52.560;13.374;2023-07-29T09:55:02;6.30;;;4.10;;
2055;SDS011;1033;52.560;13.374;2023-07-29T09:57:34;4.80;;;4.50;;
2055;SDS011;1033;52.560;13.374;2023-07-29T10:00:05;8.30;;;4.20;;
2055;SDS011;1033;52.560;13.374;2023-07-29T10:02:38;4.90;;;4.37;;
2055;SDS011;1033;52.560;13.374;2023-07-29T10:05:08;5.13;;;4.60;;
2055;SDS011;1033;52.560;13.374;2023-07-29T10:07:39;4.27;;;3.97;;
2055;SDS011;1033;52.560;13.374;2023-07-29T10:10:08;5.73;;;5.23;;
2055;SDS011;1033;52.560;13.374;2023-07-29T10:12:40;5.20;;;4.80;;
2055;SDS011;1033;52.560;13.374;2023-07-29T10:15:10;5.20;;;4.80;;
2055;SDS011;1033;52.560;13.374;2023-07-29T10:17:40;5.33;;;4.83;;
2055;SDS011;1033;52.560;13.374;2023-07-29T10:20:11;4.77;;;4.37;;
2055;SDS011;1033;52.560;13.374;2023-07-29T10:22:42;5.00;;;4.53;;
2055;SDS011;1033;52.560;13.374;2023-07-29T10:25:15;4.50;;;3.83;;
2055;SDS011;1033;52.560;13.374;2023-07-29T10:27:48;4.87;;;4.47;;
2055;SDS011;1033;52.560;13.374;2023-07-29T10:30:20;4.37;;;3.97;;
2055;SDS011;1033;52.560;13.374;2023-07-29T10:32:53;5.17;;;4.00;;
2055;SDS011;1033;52.560;13.374;2023-07-29T10:35:30;5.40;;;4.90;;
2055;SDS011;1033;52.560;13.374;2023-07-29T10:38:03;6.23;;;4.40;;
2055;SDS011;1033;52.560;13.374;2023-07-29T10:40:46;4.20;;;3.90;;
2055;SDS011;1033;52.560;13.374;2023-07-29T10:43:25;4.07;;;3.67;;
2055;SDS011;1033;52.560;13.374;2023-07-29T10:46:14;6.03;;;4.00;;
2055;SDS011;1033;52.560;13.374;2023-07-29T10:48:51;3.67;;;3.33;;
2055;SDS011;1033;52.560;13.374;2023-07-29T10:51:22;3.80;;;3.50;;
2055;SDS011;1033;52.560;13.374;2023-07-29T10:54:00;3.80;;;3.50;;
2055;SDS011;1033;52.560;13.374;2023-07-29T10:56:35;4.50;;;3.90;;
2055;SDS011;1033;52.560;13.374;2023-07-29T11:02:01;3.40;;;3.10;;
2055;SDS011;1033;52.560;13.374;2023-07-29T11:08:28;3.80;;;3.50;;
2055;SDS011;1033;52.560;13.374;2023-07-29T11:10:58;3.00;;;2.80;;
2055;SDS011;1033;52.560;13.374;2023-07-29T11:13:33;3.37;;;3.07;;
2055;SDS011;1033;52.560;13.374;2023-07-29T11:20:33;9.23;;;3.97;;
2055;SDS011;1033;52.560;13.374;2023-07-29T11:23:03;5.90;;;2.37;;
2055;SDS011;1033;52.560;13.374;2023-07-29T11:25:32;5.87;;;1.83;;
2055;SDS011;1033;52.560;13.374;2023-07-29T11:28:05;3.97;;;3.30;;
2055;SDS011;1033;52.560;13.374;2023-07-29T11:33:50;6.17;;;2.20;;
2055;SDS011;1033;52.560;13.374;2023-07-29T11:36:20;6.10;;;2.43;;
2055;SDS011;1033;52.560;13.374;2023-07-29T11:38:51;7.50;;;2.67;;
2055;SDS011;1033;52.560;13.374;2023-07-29T11:41:20;11.23;;;6.40;;
2055;SDS011;1033;52.560;13.374;2023-07-29T11:43:50;2.47;;;1.70;;
2055;SDS011;1033;52.560;13.374;2023-07-29T11:46:22;3.03;;;2.20;;
2055;SDS011;1033;52.560;13.374;2023-07-29T11:48:53;4.37;;;2.23;;
2055;SDS011;1033;52.560;13.374;2023-07-29T11:51:24;3.87;;;1.97;;
2055;SDS011;1033;52.560;13.374;2023-07-29T11:53:54;3.20;;;2.53;;
2055;SDS011;1033;52.560;13.374;2023-07-29T11:56:23;4.53;;;2.97;;
2055;SDS011;1033;52.560;13.374;2023-07-29T11:58:53;3.80;;;2.30;;
2055;SDS011;1033;52.560;13.374;2023-07-29T12:01:23;6.23;;;2.40;;
2055;SDS011;1033;52.560;13.374;2023-07-29T12:06:50;4.27;;;3.17;;
2055;SDS011;1033;52.560;13.374;2023-07-29T12:09:20;8.07;;;4.47;;
2055;SDS011;1033;52.560;13.374;2023-07-29T12:11:49;5.70;;;3.87;;
2055;SDS011;1033;52.560;13.374;2023-07-29T12:14:19;4.30;;;3.47;;
2055;SDS011;1033;52.560;13.374;2023-07-29T12:16:50;4.93;;;3.47;;
2055;SDS011;1033;52.560;13.374;2023-07-29T12:19:21;4.33;;;3.93;;
2055;SDS011;1033;52.560;13.374;2023-07-29T12:21:53;5.40;;;4.10;;
2055;SDS011;1033;52.560;13.374;2023-07-29T12:24:22;4.13;;;3.73;;
2055;SDS011;1033;52.560;13.374;2023-07-29T12:26:51;3.73;;;3.30;;
2055;SDS011;1033;52.560;13.374;2023-07-29T12:29:21;4.70;;;4.20;;
2055;SDS011;1033;52.560;13.374;2023-07-29T12:31:56;7.93;;;3.53;;
2055;SDS011;1033;52.560;13.374;2023-07-29T12:34:27;4.80;;;3.90;;
2055;SDS011;1033;52.560;13.374;2023-07-29T12:36:59;4.10;;;3.67;;
2055;SDS011;1033;52.560;13.374;2023-07-29T12:39:32;7.13;;;4.17;;
2055;SDS011;1033;52.560;13.374;2023-07-29T12:42:05;4.47;;;3.70;;
2055;SDS011;1033;52.560;13.374;2023-07-29T12:44:35;5.93;;;3.77;;
2055;SDS011;1033;52.560;13.374;2023-07-29T12:47:05;4.77;;;4.30;;
2055;SDS011;1033;52.560;13.374;2023-07-29T12:49:38;4.57;;;4.17;;
2055;SDS011;1033;52.560;13.374;2023-07-29T12:52:09;5.43;;;4.93;;
2055;SDS011;1033;52.560;13.374;2023-07-29T12:54:38;6.63;;;3.90;;
2055;SDS011;1033;52.560;13.374;2023-07-29T12:57:11;4.53;;;4.13;;
2055;SDS011;1033;52.560;13.374;2023-07-29T12:59:40;4.40;;;4.00;;
2055;SDS011;1033;52.560;13.374;2023-07-29T13:02:10;5.00;;;4.57;;
2055;SDS011;1033;52.560;13.374;2023-07-29T13:04:39;8.63;;;5.07;;
2055;SDS011;1033;52.560;13.374;2023-07-29T13:07:10;4.90;;;4.23;;
2055;SDS011;1033;52.560;13.374;2023-07-29T13:09:50;4.13;;;3.63;;
2055;SDS011;1033;52.560;13.374;2023-07-29T13:12:20;5.03;;;3.97;;
2055;SDS011;1033;52.560;13.374;2023-07-29T13:14:52;4.27;;;3.87;;
2055;SDS011;1033;52.560;13.374;2023-07-29T13:17:45;6.83;;;5.60;;
2055;SDS011;1033;52.560;13.374;2023-07-29T13:20:26;4.77;;;4.37;;
2055;SDS011;1033;52.560;13.374;2023-07-29T13:23:17;6.53;;;4.70;;
2055;SDS011;1033;52.560;13.374;2023-07-29T13:25:47;5.20;;;4.63;;
2055;SDS011;1033;52.560;13.374;2023-07-29T13:28:17;4.90;;;4.43;;
2055;SDS011;1033;52.560;13.374;2023-07-29T13:30:50;4.50;;;4.20;;
2055;SDS011;1033;52.560;13.374;2023-07-29T13:33:20;4.77;;;4.37;;
2055;SDS011;1033;52.560;13.374;2023-07-29T13:35:49;6.27;;;4.70;;
2055;SDS011;1033;52.560;13.374;2023-07-29T13:38:20;7.33;;;4.90;;
2055;SDS011;1033;52.560;13.374;2023-07-29T13:40:49;4.83;;;4.33;;
2055;SDS011;1033;52.560;13.374;2023-07-29T13:43:19;4.10;;;3.80;;
2055;SDS011;1033;52.560;13.374;2023-07-29T13:45:49;5.10;;;3.97;;
2055;SDS011;1033;52.560;13.374;2023-07-29T13:48:19;3.83;;;3.53;;
2055;SDS011;1033;52.560;13.374;2023-07-29T13:50:48;2.90;;;2.70;;
2055;SDS011;1033;52.560;13.374;2023-07-29T13:53:17;3.63;;;3.33;;
2055;SDS011;1033;52.560;13.374;2023-07-29T13:55:48;3.40;;;3.10;;
2055;SDS011;1033;52.560;13.374;2023-07-29T13:58:20;2.17;;;1.97;;
2055;SDS011;1033;52.560;13.374;2023-07-29T14:00:50;2.63;;;2.23;;
2055;SDS011;1033;52.560;13.374;2023-07-29T14:03:20;2.40;;;1.97;;
2055;SDS011;1033;52.560;13.374;2023-07-29T14:05:54;2.20;;;2.00;;
2055;SDS011;1033;52.560;13.374;2023-07-29T14:08:23;2.57;;;2.10;;
2055;SDS011;1033;52.560;13.374;2023-07-29T14:10:54;2.07;;;1.53;;
2055;SDS011;1033;52.560;13.374;2023-07-29T14:13:23;2.90;;;2.70;;
2055;SDS011;1033;52.560;13.374;2023-07-29T14:15:52;1.90;;;1.40;;
2055;SDS011;1033;52.560;13.374;2023-07-29T14:18:22;2.23;;;2.00;;
2055;SDS011;1033;52.560;13.374;2023-07-29T14:20:51;3.33;;;2.20;;
2055;SDS011;1033;52.560;13.374;2023-07-29T14:23:20;2.10;;;1.90;;
2055;SDS011;1033;52.560;13.374;2023-07-29T14:25:49;2.37;;;1.87;;
2055;SDS011;1033;52.560;13.374;2023-07-29T14:28:20;2.73;;;1.80;;
2055;SDS011;1033;52.560;13.374;2023-07-29T14:30:50;1.60;;;1.43;;
2055;SDS011;1033;52.560;13.374;2023-07-29T14:33:19;3.00;;;1.97;;
2055;SDS011;1033;52.560;13.374;2023-07-29T14:35:48;2.70;;;1.70;;
2055;SDS011;1033;52.560;13.374;2023-07-29T14:38:17;2.90;;;2.47;;
2055;SDS011;1033;52.560;13.374;2023-07-29T14:40:47;2.77;;;2.20;;
2055;SDS011;1033;52.560;13.374;2023-07-29T14:43:20;2.23;;;1.87;;
2055;SDS011;1033;52.560;13.374;2023-07-29T14:45:50;3.00;;;2.40;;
2055;SDS011;1033;52.560;13.374;2023-07-29T14:48:19;2.73;;;2.20;;
2055;SDS011;1033;52.560;13.374;2023-07-29T14:50:50;8.53;;;2.80;;
2055;SDS011;1033;52.560;13.374;2023-07-29T14:53:19;2.77;;;2.33;;
2055;SDS011;1033;52.560;13.374;2023-07-29T14:55:49;1.97;;;1.77;;
2055;SDS011;1033;52.560;13.374;2023-07-29T14:58:18;2.67;;;2.10;;
2055;SDS011;1033;52.560;13.374;2023-07-29T15:00:51;2.53;;;2.07;;
2055;SDS011;1033;52.560;13.374;2023-07-29T15:03:21;2.53;;;2.33;;
2055;SDS011;1033;52.560;13.374;2023-07-29T15:05:51;2.60;;;2.23;;
2055;SDS011;1033;52.560;13.374;2023-07-29T15:08:20;2.60;;;2.30;;
2055;SDS011;1033;52.560;13.374;2023-07-29T15:10:49;2.20;;;2.00;;
2055;SDS011;1033;52.560;13.374;2023-07-29T15:13:21;2.47;;;2.27;;
2055;SDS011;1033;52.560;13.374;2023-07-29T15:15:51;4.57;;;2.50;;
2055;SDS011;1033;52.560;13.374;2023-07-29T15:18:20;3.47;;;3.07;;
2055;SDS011;1033;52.560;13.374;2023-07-29T15:20:57;3.87;;;2.90;;
2055;SDS011;1033;52.560;13.374;2023-07-29T15:23:33;3.07;;;2.80;;
2055;SDS011;1033;52.560;13.374;2023-07-29T15:26:07;3.57;;;2.30;;
2055;SDS011;1033;52.560;13.374;2023-07-29T15:28:38;3.70;;;2.97;;
2055;SDS011;1033;52.560;13.374;2023-07-29T15:31:07;4.73;;;4.17;;
2055;SDS011;1033;52.560;13.374;2023-07-29T15:33:37;6.43;;;4.23;;